createdAt,value
2019-03-25T00:04:02.274Z,9.14
2019-03-25T00:06:53.198Z,9.11
2019-03-25T00:09:47.444Z,9.16
2019-03-25T00:12:18.689Z,9.09
2019-03-25T00:15:08.675Z,9.02
2019-03-25T00:17:58.779Z,9.05
2019-03-25T00:20:49.016Z,9.07
2019-03-25T00:23:20.454Z,9.05
2019-03-25T00:25:51.766Z,9.14
2019-03-25T00:28:41.873Z,9.08
2019-03-25T00:31:32.109Z,8.98
2019-03-25T00:34:21.926Z,8.96
2019-03-25T00:37:19.933Z,9.02
2019-03-25T00:40:12.154Z,8.83
2019-03-25T00:43:03.316Z,8.85
2019-03-25T00:45:53.163Z,8.84
2019-03-25T00:48:24.695Z,8.80
2019-03-25T00:53:49.881Z,8.63
2019-03-25T00:56:32.052Z,8.75
2019-03-25T00:59:15.010Z,8.75
2019-03-25T01:01:56.918Z,8.66
2019-03-25T01:04:38.496Z,8.66
2019-03-25T01:07:19.923Z,8.64
2019-03-25T01:09:51.523Z,8.60
2019-03-25T01:12:22.634Z,8.64
2019-03-25T01:14:53.817Z,8.62
2019-03-25T01:17:44.329Z,8.71
2019-03-25T01:20:34.234Z,8.49
2019-03-25T01:26:34.882Z,8.32
2019-03-25T01:29:06.214Z,8.30
2019-03-25T01:31:56.152Z,8.25
2019-03-25T01:34:46.316Z,8.30
2019-03-25T01:37:17.675Z,8.38
2019-03-25T01:40:08.271Z,8.39
2019-03-25T01:42:39.785Z,8.31
2019-03-25T01:45:11.133Z,8.29
2019-03-25T01:48:01.582Z,8.34
2019-03-25T01:50:51.734Z,8.33
2019-03-25T01:53:22.954Z,8.27
2019-03-25T01:56:35.697Z,8.23
2019-03-25T01:59:07.981Z,8.19
2019-03-25T02:01:42.770Z,8.14
2019-03-25T02:04:14.036Z,8.14
2019-03-25T02:07:04.902Z,8.09
2019-03-25T02:09:39.774Z,8.08
2019-03-25T02:12:29.914Z,8.07
2019-03-25T02:15:20.310Z,8.06
2019-03-25T02:18:10.492Z,8.08
2019-03-25T02:23:57.178Z,7.23
2019-03-25T02:26:28.380Z,8.00
2019-03-25T02:29:19.802Z,7.97
2019-03-25T02:32:09.922Z,8.06
2019-03-25T02:35:00.086Z,7.96
2019-03-25T02:37:49.932Z,7.99
2019-03-25T02:42:59.878Z,8.00
2019-03-25T02:45:31.123Z,7.90
2019-03-25T02:48:07.649Z,7.87
2019-03-25T02:50:58.426Z,7.79
2019-03-25T02:53:48.762Z,7.80
2019-03-25T02:56:39.107Z,7.65
2019-03-25T02:59:28.991Z,7.54
2019-03-25T03:02:00.732Z,7.37
2019-03-25T03:04:50.916Z,7.23
2019-03-25T03:07:40.855Z,7.24
2019-03-25T03:10:12.533Z,7.05
2019-03-25T03:12:44.007Z,6.91
2019-03-25T03:15:34.236Z,6.87
2019-03-25T03:18:05.697Z,6.74
2019-03-25T03:20:55.886Z,6.59
2019-03-25T03:23:49.681Z,6.47
2019-03-25T03:29:36.762Z,6.26
2019-03-25T03:32:26.984Z,6.31
2019-03-25T03:34:58.472Z,6.37
2019-03-25T03:37:30.676Z,6.35
2019-03-25T03:40:21.659Z,6.39
2019-03-25T03:42:53.006Z,6.51
2019-03-25T03:45:35.752Z,6.48
2019-03-25T03:48:28.476Z,6.48
2019-03-25T03:51:18.641Z,6.37
2019-03-25T03:54:08.641Z,6.17
2019-03-25T03:56:58.793Z,6.26
2019-03-25T03:59:48.953Z,6.33
2019-03-25T04:02:40.223Z,6.47
2019-03-25T04:05:11.472Z,6.57
2019-03-25T04:08:02.665Z,6.60
2019-03-25T04:10:52.991Z,6.62
2019-03-25T04:13:24.773Z,6.58
2019-03-25T04:15:56.165Z,6.63
2019-03-25T04:18:46.075Z,6.68
2019-03-25T04:21:17.301Z,6.61
2019-03-25T04:24:07.595Z,6.59
2019-03-25T04:26:39.961Z,6.53
2019-03-25T04:29:30.374Z,6.42
2019-03-25T04:32:01.839Z,6.35
2019-03-25T04:37:36.502Z,6.19
2019-03-25T04:40:26.656Z,6.15
2019-03-25T04:43:17.929Z,6.01
2019-03-25T04:46:00.013Z,5.97
2019-03-25T04:48:42.299Z,5.89
2019-03-25T04:51:26.142Z,5.74
2019-03-25T04:54:07.623Z,5.68
2019-03-25T04:56:40.136Z,5.59
2019-03-25T04:59:11.812Z,5.47
2019-03-25T05:02:01.756Z,5.35
2019-03-25T05:04:33.428Z,5.29
2019-03-25T05:07:55.011Z,5.34
2019-03-25T05:10:44.813Z,5.28
2019-03-25T05:13:16.459Z,5.08
2019-03-25T05:15:48.094Z,5.00
2019-03-25T05:18:19.415Z,4.95
2019-03-25T05:20:50.661Z,4.81
2019-03-25T05:23:41.052Z,4.82
2019-03-25T05:26:30.979Z,4.89
2019-03-25T05:29:02.566Z,4.80
2019-03-25T05:31:33.904Z,4.71
2019-03-25T05:34:25.428Z,4.54
2019-03-25T05:39:43.098Z,4.39
2019-03-25T05:42:32.978Z,4.34
2019-03-25T05:45:22.788Z,4.26
2019-03-25T05:48:04.757Z,4.29
2019-03-25T05:50:37.273Z,4.23
2019-03-25T05:56:10.710Z,4.26
2019-03-25T06:01:50.071Z,4.12
2019-03-25T06:04:40.466Z,4.13
2019-03-25T06:07:31.847Z,4.23
2019-03-25T06:10:27.812Z,4.39
2019-03-25T06:16:21.178Z,4.82
2019-03-25T06:18:58.685Z,4.93
2019-03-25T06:21:48.698Z,5.04
2019-03-25T06:24:39.790Z,5.17
2019-03-25T06:27:29.729Z,5.24
2019-03-25T06:30:19.961Z,5.34
2019-03-25T06:32:51.518Z,5.45
2019-03-25T06:35:42.608Z,5.50
2019-03-25T06:38:14.219Z,5.64
2019-03-25T06:40:45.937Z,5.69
2019-03-25T06:43:37.361Z,5.79
2019-03-25T06:46:32.721Z,5.86
2019-03-25T06:52:23.152Z,6.10
2019-03-25T07:01:09.173Z,6.57
2019-03-25T07:03:40.557Z,6.76
2019-03-25T07:06:12.400Z,6.93
2019-03-25T07:08:44.055Z,6.93
2019-03-25T07:11:15.395Z,6.98
2019-03-25T07:14:05.891Z,7.00
2019-03-25T07:16:37.310Z,7.18
2019-03-25T07:19:12.576Z,7.35
2019-03-25T07:25:13.639Z,7.40
2019-03-25T07:27:47.223Z,7.38
2019-03-25T07:30:37.374Z,7.29
2019-03-25T07:33:08.837Z,7.27
2019-03-25T07:36:08.252Z,7.36
2019-03-25T07:42:06.198Z,7.39
2019-03-25T07:44:37.840Z,7.58
2019-03-25T07:47:13.238Z,7.82
2019-03-25T07:50:03.890Z,7.89
2019-03-25T07:52:35.935Z,7.96
2019-03-25T07:58:30.047Z,8.20
2019-03-25T08:01:01.715Z,8.41
2019-03-25T08:03:33.293Z,8.85
2019-03-25T08:06:04.758Z,8.79
2019-03-25T08:08:36.767Z,8.91
2019-03-25T08:11:09.525Z,8.91
2019-03-25T08:13:44.534Z,8.97
2019-03-25T08:16:16.501Z,8.84
2019-03-25T08:19:47.305Z,8.70
2019-03-25T08:22:41.397Z,8.32
2019-03-25T08:25:15.456Z,8.37
2019-03-25T08:27:59.404Z,8.13
2019-03-25T08:30:27.623Z,8.01
2019-03-25T08:33:02.599Z,8.28
2019-03-25T08:35:57.329Z,8.51
2019-03-25T08:38:36.957Z,8.76
2019-03-25T08:41:12.440Z,8.71
2019-03-25T08:43:44.097Z,8.75
2019-03-25T08:46:34.051Z,8.91
2019-03-25T08:52:03.371Z,9.04
2019-03-25T08:55:06.467Z,9.09
2019-03-25T08:57:38.227Z,8.88
2019-03-25T09:03:06.731Z,8.91
2019-03-25T09:05:59.867Z,8.96
2019-03-25T09:08:55.719Z,9.04
2019-03-25T09:11:51.912Z,9.32
2019-03-25T09:14:23.878Z,9.91
2019-03-25T09:16:55.691Z,9.86
2019-03-25T09:22:23.456Z,9.54
2019-03-25T09:28:39.695Z,9.21
2019-03-25T09:31:17.182Z,9.44
2019-03-25T09:34:10.482Z,10.79
2019-03-25T09:36:42.528Z,10.98
2019-03-25T09:39:15.204Z,11.16
2019-03-25T09:41:48.714Z,10.19
2019-03-25T09:47:02.671Z,10.21
2019-03-25T09:49:45.800Z,10.04
2019-03-25T09:52:38.086Z,10.49
2019-03-25T09:55:10.874Z,10.47
2019-03-25T09:57:42.412Z,10.13
2019-03-25T10:00:37.990Z,9.83
2019-03-25T10:03:09.779Z,9.40
2019-03-25T10:06:04.981Z,9.17
2019-03-25T10:11:32.947Z,8.82
2019-03-25T10:14:24.667Z,8.79
2019-03-25T10:16:56.156Z,8.74
2019-03-25T10:19:47.004Z,8.66
2019-03-25T10:22:37.344Z,8.65
2019-03-25T10:28:58.528Z,8.97
2019-03-25T10:34:33.012Z,9.27
2019-03-25T10:38:19.713Z,9.35
2019-03-25T10:40:28.253Z,9.45
2019-03-25T10:43:02.130Z,9.47
2019-03-25T10:45:34.093Z,9.37
2019-03-25T10:48:06.185Z,9.26
2019-03-25T10:50:37.707Z,9.19
2019-03-25T10:53:10.426Z,9.66
2019-03-25T10:59:19.961Z,9.50
2019-03-25T11:01:55.038Z,9.37
2019-03-25T11:04:26.591Z,10.19
2019-03-25T11:07:17.162Z,10.37
2019-03-25T11:09:49.020Z,10.63
2019-03-25T11:12:26.524Z,9.96
2019-03-25T11:14:58.675Z,9.90
2019-03-25T11:17:32.076Z,9.88
2019-03-25T11:20:22.412Z,9.97
2019-03-25T11:23:14.678Z,9.96
2019-03-25T11:26:10.440Z,9.92
2019-03-25T11:29:08.254Z,9.05
2019-03-25T11:31:56.144Z,9.78
2019-03-25T11:34:27.623Z,9.57
2019-03-25T11:37:02.594Z,10.21
2019-03-25T11:39:34.656Z,10.55
2019-03-25T11:42:10.266Z,10.56
2019-03-25T11:44:44.942Z,10.34
2019-03-25T11:47:42.502Z,10.43
2019-03-25T11:50:33.565Z,10.41
2019-03-25T11:53:04.981Z,9.88
2019-03-25T11:55:40.702Z,10.52
2019-03-25T12:01:20.764Z,10.86
2019-03-25T12:04:13.119Z,10.59
2019-03-25T12:07:04.862Z,10.28
2019-03-25T12:09:41.681Z,10.19
2019-03-25T12:12:16.948Z,10.08
2019-03-25T12:18:09.299Z,10.12
2019-03-25T12:21:01.258Z,10.60
2019-03-25T12:23:57.231Z,10.56
2019-03-25T12:26:35.126Z,10.36
2019-03-25T12:29:09.100Z,9.01
2019-03-25T12:32:35.613Z,7.99
2019-03-25T12:35:16.977Z,7.49
2019-03-25T12:38:03.712Z,7.65
2019-03-25T12:43:24.515Z,8.70
2019-03-25T12:48:50.763Z,9.29
2019-03-25T12:51:39.775Z,8.92
2019-03-25T12:57:52.939Z,8.30
2019-03-25T13:01:07.963Z,7.90
2019-03-25T13:04:17.628Z,7.15
2019-03-25T13:07:09.139Z,6.32
2019-03-25T13:09:48.277Z,5.46
2019-03-25T13:12:59.769Z,6.04
2019-03-25T13:19:20.167Z,7.64
2019-03-25T13:22:13.836Z,7.54
2019-03-25T13:24:48.679Z,8.36
2019-03-25T13:30:17.868Z,9.12
2019-03-25T13:33:09.020Z,9.26
2019-03-25T13:36:04.811Z,9.91
2019-03-25T13:38:49.839Z,10.89
2019-03-25T13:41:43.091Z,11.41
2019-03-25T13:44:35.556Z,11.36
2019-03-25T13:47:25.385Z,11.95
2019-03-25T13:50:15.097Z,12.09
2019-03-25T13:53:05.944Z,11.61
2019-03-25T13:55:39.844Z,11.41
2019-03-25T13:58:32.291Z,11.07
2019-03-25T14:01:25.656Z,10.66
2019-03-25T14:06:52.175Z,10.38
2019-03-25T14:09:24.737Z,10.27
2019-03-25T14:11:56.317Z,10.09
2019-03-25T14:14:28.806Z,9.87
2019-03-25T14:17:00.495Z,9.66
2019-03-25T14:19:41.233Z,9.32
2019-03-25T14:22:12.961Z,8.16
2019-03-25T14:24:44.587Z,7.25
2019-03-25T14:27:16.038Z,6.88
2019-03-25T14:29:47.271Z,6.85
2019-03-25T14:32:39.577Z,6.78
2019-03-25T14:35:11.069Z,6.39
2019-03-25T14:40:34.939Z,6.11
2019-03-25T14:43:08.913Z,6.15
2019-03-25T14:45:40.378Z,6.98
2019-03-25T14:48:30.950Z,10.22
2019-03-25T14:51:20.911Z,12.78
2019-03-25T14:53:52.773Z,14.37
2019-03-25T14:56:27.751Z,15.04
2019-03-25T14:59:19.784Z,15.08
2019-03-25T15:02:01.734Z,16.19
2019-03-25T15:04:34.241Z,16.40
2019-03-25T15:07:06.199Z,16.57
2019-03-25T15:09:46.190Z,17.29
2019-03-25T15:12:20.529Z,17.08
2019-03-25T15:15:11.338Z,17.49
2019-03-25T15:18:01.310Z,18.24
2019-03-25T15:20:32.759Z,17.56
2019-03-25T15:23:04.722Z,18.36
2019-03-25T15:25:37.066Z,18.85
2019-03-25T15:28:26.895Z,19.23
2019-03-25T15:30:58.486Z,19.05
2019-03-25T15:33:31.272Z,17.54
2019-03-25T15:36:02.478Z,15.84
2019-03-25T15:38:52.454Z,14.10
2019-03-25T15:41:23.867Z,12.75
2019-03-25T15:43:55.614Z,12.67
2019-03-25T15:46:55.359Z,11.46
2019-03-25T15:49:38.899Z,10.83
2019-03-25T15:52:54.436Z,10.05
2019-03-25T15:55:32.477Z,9.45
2019-03-25T15:58:26.238Z,9.27
2019-03-25T16:01:18.134Z,9.15
2019-03-25T16:06:51.826Z,8.72
2019-03-25T16:09:23.444Z,8.66
2019-03-25T16:12:32.463Z,8.57
2019-03-25T16:16:06.348Z,8.54
2019-03-25T16:21:55.138Z,8.40
2019-03-25T16:24:47.015Z,8.40
2019-03-25T16:27:37.080Z,8.49
2019-03-25T16:30:09.852Z,8.53
2019-03-25T16:36:01.146Z,8.87
2019-03-25T16:38:33.246Z,8.71
2019-03-25T16:41:23.298Z,8.60
2019-03-25T16:44:13.221Z,8.54
2019-03-25T16:47:03.546Z,8.57
2019-03-25T16:49:53.449Z,8.40
2019-03-25T16:52:44.598Z,8.38
2019-03-25T16:55:34.631Z,8.29
2019-03-25T16:58:24.998Z,8.18
2019-03-25T17:01:15.563Z,8.13
2019-03-25T17:04:05.495Z,8.14
2019-03-25T17:06:55.311Z,8.11
2019-03-25T17:09:26.672Z,7.88
2019-03-25T17:12:08.259Z,7.90
2019-03-25T17:14:39.894Z,7.70
2019-03-25T17:17:11.339Z,7.32
2019-03-25T17:20:05.190Z,7.05
2019-03-25T17:22:56.016Z,6.66
2019-03-25T17:25:27.715Z,6.55
2019-03-25T17:28:20.274Z,6.31
2019-03-25T17:30:55.182Z,6.18
2019-03-25T17:33:48.315Z,6.00
2019-03-25T17:36:29.886Z,5.94
2019-03-25T17:39:35.488Z,5.91
2019-03-25T17:42:07.141Z,5.87
2019-03-25T17:47:56.240Z,5.78
2019-03-25T17:50:49.742Z,5.71
2019-03-25T17:53:44.478Z,5.68
2019-03-25T17:56:37.680Z,5.91
2019-03-25T17:59:15.008Z,6.12
2019-03-25T18:02:06.085Z,6.30
2019-03-25T18:04:41.570Z,6.42
2019-03-25T18:07:33.444Z,6.38
2019-03-25T18:10:27.338Z,6.31
2019-03-25T18:12:59.911Z,6.22
2019-03-25T18:15:50.400Z,6.26
2019-03-25T18:18:23.922Z,6.27
2019-03-25T18:20:55.397Z,6.27
2019-03-25T18:23:45.486Z,6.21
2019-03-25T18:26:17.674Z,6.14
2019-03-25T18:34:40.147Z,6.04
2019-03-25T18:37:11.657Z,5.98
2019-03-25T18:45:37.464Z,5.72
2019-03-25T18:48:13.467Z,5.63
2019-03-25T18:53:46.273Z,5.45
2019-03-25T18:56:19.188Z,5.40
2019-03-25T18:58:56.995Z,5.46
2019-03-25T19:02:09.443Z,5.63
2019-03-25T19:04:44.121Z,5.63
2019-03-25T19:10:35.352Z,5.48
2019-03-25T19:13:13.609Z,5.53
2019-03-25T19:18:45.018Z,4.83
2019-03-25T19:21:41.887Z,5.65
2019-03-25T19:24:22.514Z,5.73
2019-03-25T19:27:30.729Z,5.39
2019-03-25T19:33:19.396Z,5.62
2019-03-25T19:35:58.353Z,5.59
2019-03-25T19:38:49.991Z,5.68
2019-03-25T19:41:43.818Z,5.81
2019-03-25T19:44:33.980Z,5.81
2019-03-25T19:47:08.831Z,5.89
2019-03-25T19:49:40.451Z,5.88
2019-03-25T19:52:12.627Z,6.01
2019-03-25T19:55:02.715Z,5.98
2019-03-25T19:57:34.577Z,6.10
2019-03-25T20:00:34.863Z,6.08
2019-03-25T20:03:08.891Z,6.13
2019-03-25T20:05:59.280Z,6.02
2019-03-25T20:08:33.912Z,6.04
2019-03-25T20:11:36.297Z,5.94
2019-03-25T20:14:36.426Z,5.92
2019-03-25T20:17:26.762Z,5.85
2019-03-25T20:23:37.399Z,5.84
2019-03-25T20:26:28.400Z,5.63
2019-03-25T20:29:00.138Z,5.47
2019-03-25T20:31:50.830Z,5.30
2019-03-25T20:34:45.471Z,5.13
2019-03-25T20:37:40.915Z,4.98
2019-03-25T20:40:34.123Z,4.91
2019-03-25T20:43:25.192Z,4.96
2019-03-25T20:46:18.059Z,4.93
2019-03-25T20:49:00.513Z,4.91
2019-03-25T20:51:43.268Z,4.93
2019-03-25T20:54:30.819Z,4.87
2019-03-25T21:00:10.231Z,4.84
2019-03-25T21:05:46.448Z,4.81
2019-03-25T21:08:36.586Z,4.85
2019-03-25T21:11:09.754Z,4.91
2019-03-25T21:14:00.291Z,4.82
2019-03-25T21:16:50.827Z,4.78
2019-03-25T21:19:41.043Z,4.79
2019-03-25T21:22:31.438Z,4.79
2019-03-25T21:25:22.029Z,4.78
2019-03-25T21:28:12.748Z,4.78
2019-03-25T21:31:03.154Z,4.74
2019-03-25T21:33:53.208Z,4.78
2019-03-25T21:36:25.050Z,4.73
2019-03-25T21:39:16.446Z,4.65
2019-03-25T21:42:09.073Z,4.65
2019-03-25T21:44:59.263Z,4.65
2019-03-25T21:47:30.624Z,4.60
2019-03-25T21:50:21.498Z,4.55
2019-03-25T21:52:52.929Z,4.60
2019-03-25T21:55:42.890Z,4.61
2019-03-25T21:58:25.313Z,4.62
2019-03-25T22:01:14.780Z,4.70
2019-03-25T22:03:45.962Z,4.49
2019-03-25T22:06:17.548Z,4.52
2019-03-25T22:09:08.325Z,4.49
2019-03-25T22:11:58.286Z,4.62
2019-03-25T22:15:07.246Z,4.48
2019-03-25T22:17:38.651Z,4.47
2019-03-25T22:20:28.494Z,4.42
2019-03-25T22:23:18.391Z,4.34
2019-03-25T22:25:52.821Z,4.36
2019-03-25T22:28:24.609Z,4.46
2019-03-25T22:31:23.065Z,4.49
2019-03-25T22:33:58.225Z,4.43
2019-03-25T22:36:29.592Z,4.49
2019-03-25T22:39:28.281Z,4.43
2019-03-25T22:42:09.897Z,4.40
2019-03-25T22:48:34.935Z,4.34
2019-03-25T22:54:04.602Z,4.11
2019-03-25T22:56:46.817Z,4.23
2019-03-25T23:02:08.556Z,4.26
2019-03-25T23:04:58.718Z,4.33
2019-03-25T23:11:01.541Z,4.37
2019-03-25T23:13:32.713Z,4.38
2019-03-25T23:16:23.671Z,4.53
2019-03-25T23:18:55.128Z,4.46
2019-03-25T23:24:41.976Z,4.48
2019-03-25T23:27:32.646Z,4.54
2019-03-25T23:30:22.634Z,4.49
2019-03-25T23:33:13.236Z,4.56
2019-03-25T23:36:03.542Z,4.45
2019-03-25T23:41:37.951Z,4.43
2019-03-25T23:44:51.338Z,4.57
2019-03-25T23:48:00.030Z,4.45
2019-03-25T23:50:50.201Z,4.58
2019-03-25T23:53:40.100Z,4.56
2019-03-25T23:56:20.873Z,4.45
2019-03-25T23:59:11.111Z,4.51
